Time;durP1;ratioP1;P1;durP2;ratioP2;P2;SDS_P1;SDS_P2;PMS_P1;PMS_P2;Temp;Humidity;BMP_temperature;BMP_pressure;BME280_temperature;BME280_humidity;BME280_pressure;Samples;Min_cycle;Max_cycle;Signal;HPM_P1;HPM_P2
2021/08/06 00:01:00;;;;;;;12.00;10.90;;;17.10;99.90;;;;;;5050466;28;20292;-70
2021/08/06 00:03:29;;;;;;;13.18;11.98;;;17.10;99.90;;;;;;5063228;28;20219;-70
2021/08/06 00:05:56;;;;;;;14.02;12.63;;;17.10;99.90;;;;;;5048345;28;20671;-70
2021/08/06 00:08:23;;;;;;;12.68;11.63;;;17.00;99.90;;;;;;5044481;28;20590;-70
2021/08/06 00:10:50;;;;;;;12.95;11.60;;;16.90;99.90;;;;;;5055036;28;20199;-71
2021/08/06 00:13:18;;;;;;;13.15;11.95;;;17.00;99.90;;;;;;5047974;28;20213;-71
2021/08/06 00:15:45;;;;;;;13.07;11.70;;;17.00;99.90;;;;;;5062411;28;20210;-71
2021/08/06 00:18:13;;;;;;;13.75;12.52;;;17.00;99.90;;;;;;5051779;28;20704;-71
2021/08/06 00:20:41;;;;;;;13.40;12.20;;;17.00;99.90;;;;;;5052703;28;20766;-71
2021/08/06 00:23:08;;;;;;;29.73;14.70;;;17.00;99.90;;;;;;5047898;28;20237;-70
2021/08/06 00:25:35;;;;;;;13.40;12.10;;;17.00;99.90;;;;;;5042767;28;20194;-71
2021/08/06 00:28:02;;;;;;;13.80;12.60;;;17.00;99.90;;;;;;5047524;28;20623;-69
2021/08/06 00:30:30;;;;;;;12.85;11.52;;;17.00;99.90;;;;;;5052032;28;20207;-71
2021/08/06 00:32:57;;;;;;;14.32;12.93;;;17.00;99.90;;;;;;5049622;28;20209;-70
2021/08/06 00:35:26;;;;;;;13.18;12.00;;;16.90;99.90;;;;;;5053270;28;20206;-71
2021/08/06 00:37:53;;;;;;;13.40;12.20;;;16.80;99.90;;;;;;5055659;28;20236;-71
2021/08/06 00:40:22;;;;;;;14.77;12.38;;;16.90;99.90;;;;;;5052494;28;20221;-70
2021/08/06 00:42:50;;;;;;;12.70;11.40;;;16.90;99.90;;;;;;5052875;28;20206;-71
2021/08/06 00:45:18;;;;;;;12.70;11.50;;;16.90;99.90;;;;;;5066249;28;20224;-70
2021/08/06 00:47:45;;;;;;;14.00;12.70;;;16.90;99.90;;;;;;5064522;28;20222;-71
2021/08/06 00:50:13;;;;;;;13.75;12.52;;;16.90;99.90;;;;;;5066654;28;20205;-71
2021/08/06 00:52:43;;;;;;;14.82;13.15;;;16.90;99.90;;;;;;5055094;28;20208;-71
2021/08/06 00:55:11;;;;;;;14.57;13.13;;;16.80;99.90;;;;;;5048759;28;20256;-71
2021/08/06 00:57:39;;;;;;;13.88;12.68;;;16.80;99.90;;;;;;5082801;23;20234;-82
2021/08/06 01:00:07;;;;;;;15.13;13.73;;;16.80;99.90;;;;;;5024016;28;20847;-83
2021/08/06 01:02:43;;;;;;;15.80;14.30;;;16.80;99.90;;;;;;5020814;28;20280;-84
2021/08/06 01:05:13;;;;;;;14.88;13.45;;;16.70;99.90;;;;;;5027710;28;20226;-82
2021/08/06 01:07:49;;;;;;;16.25;14.80;;;16.70;99.90;;;;;;5031427;28;20920;-83
2021/08/06 01:10:18;;;;;;;16.27;14.73;;;16.70;99.90;;;;;;5021209;28;20820;-80
2021/08/06 01:12:52;;;;;;;15.75;14.32;;;16.70;99.90;;;;;;5026666;28;20210;-84
2021/08/06 01:15:19;;;;;;;14.10;12.77;;;16.60;99.90;;;;;;5041522;28;20230;-83
2021/08/06 01:17:48;;;;;;;16.98;15.38;;;16.60;99.90;;;;;;5030972;28;20233;-83
2021/08/06 01:20:18;;;;;;;15.23;13.55;;;16.60;99.90;;;;;;5026396;28;20203;-84
2021/08/06 01:22:51;;;;;;;15.40;14.10;;;16.60;99.90;;;;;;5036169;28;20201;-84
2021/08/06 01:25:54;;;;;;;15.60;14.00;;;16.60;99.90;;;;;;5033324;28;20227;-83
2021/08/06 01:28:24;;;;;;;17.45;15.85;;;16.60;99.90;;;;;;5025461;28;20227;-84
2021/08/06 01:30:53;;;;;;;16.90;14.90;;;16.50;99.90;;;;;;5034933;28;20605;-82
2021/08/06 01:33:20;;;;;;;16.15;14.75;;;16.50;99.90;;;;;;5034053;28;20205;-82
2021/08/06 01:35:48;;;;;;;21.75;16.52;;;16.40;99.90;;;;;;5021143;28;20213;-82
2021/08/06 01:38:17;;;;;;;19.20;17.17;;;16.40;99.90;;;;;;5039807;28;20272;-81
2021/08/06 01:40:57;;;;;;;18.50;16.63;;;16.40;99.90;;;;;;5033152;28;20214;-82
2021/08/06 01:43:33;;;;;;;18.65;16.95;;;16.40;99.90;;;;;;5021223;28;20209;-81
2021/08/06 01:46:07;;;;;;;15.63;14.10;;;16.30;99.90;;;;;;5039790;28;20212;-78
2021/08/06 01:48:37;;;;;;;16.35;14.82;;;16.30;99.90;;;;;;5048247;28;20235;-78
2021/08/06 01:51:08;;;;;;;19.30;17.30;;;16.30;99.90;;;;;;5042964;28;20185;-79
2021/08/06 01:53:40;;;;;;;18.05;14.43;;;16.30;99.90;;;;;;5044089;28;20250;-78
2021/08/06 01:56:11;;;;;;;17.23;15.50;;;16.30;99.90;;;;;;5034137;28;20276;-78
2021/08/06 01:58:41;;;;;;;15.85;14.45;;;16.30;99.90;;;;;;5038325;28;20192;-79
2021/08/06 02:01:12;;;;;;;17.52;15.93;;;16.30;99.90;;;;;;5037972;28;20185;-78
2021/08/06 02:03:40;;;;;;;16.90;15.25;;;16.30;99.90;;;;;;5042964;28;20211;-79
2021/08/06 02:06:07;;;;;;;17.50;15.90;;;16.30;99.90;;;;;;5042399;28;20221;-80
2021/08/06 02:08:36;;;;;;;18.95;17.15;;;16.20;99.90;;;;;;5036834;28;20244;-79
2021/08/06 02:11:04;;;;;;;18.77;17.00;;;16.20;99.90;;;;;;5033985;28;20183;-79
2021/08/06 02:13:31;;;;;;;18.42;16.80;;;16.20;99.90;;;;;;5030566;28;20250;-81
2021/08/06 02:16:00;;;;;;;19.60;17.63;;;16.20;99.90;;;;;;5034895;28;20244;-83
2021/08/06 02:18:29;;;;;;;18.92;17.27;;;16.20;99.90;;;;;;5034542;28;20207;-81
2021/08/06 02:20:57;;;;;;;19.60;17.52;;;16.20;99.90;;;;;;5030604;28;20206;-83
2021/08/06 02:23:26;;;;;;;16.70;15.15;;;16.20;99.90;;;;;;5038195;28;20205;-84
2021/08/06 02:25:56;;;;;;;18.67;17.02;;;16.10;99.90;;;;;;5029818;28;20222;-81
2021/08/06 02:28:25;;;;;;;17.70;16.20;;;16.10;99.90;;;;;;5037642;28;20210;-82
2021/08/06 02:30:55;;;;;;;17.85;15.75;;;16.10;99.90;;;;;;5030341;28;20209;-81
2021/08/06 02:33:24;;;;;;;20.60;15.82;;;16.10;99.90;;;;;;5023403;28;20208;-83
2021/08/06 02:35:51;;;;;;;19.65;17.65;;;16.00;99.90;;;;;;5041772;28;20205;-83
2021/08/06 02:38:22;;;;;;;19.05;17.15;;;16.00;99.90;;;;;;5029705;28;20201;-83
2021/08/06 02:40:50;;;;;;;17.48;15.88;;;15.90;99.90;;;;;;5027856;28;20223;-83
2021/08/06 02:43:18;;;;;;;18.38;16.48;;;15.90;99.90;;;;;;5025924;28;20209;-82
2021/08/06 02:45:47;;;;;;;18.35;16.75;;;15.90;99.90;;;;;;5037674;28;20232;-82
2021/08/06 02:48:14;;;;;;;20.17;18.15;;;15.80;99.90;;;;;;5036302;28;20208;-83
2021/08/06 02:50:42;;;;;;;19.55;17.58;;;15.80;99.90;;;;;;5032305;28;20197;-84
2021/08/06 02:53:10;;;;;;;20.85;18.80;;;15.80;99.90;;;;;;5045042;28;20208;-83
2021/08/06 02:55:38;;;;;;;18.83;17.10;;;15.80;99.90;;;;;;5028579;28;20201;-83
2021/08/06 02:58:05;;;;;;;19.80;18.00;;;15.80;99.90;;;;;;5036412;28;20223;-83
2021/08/06 03:00:32;;;;;;;22.17;19.10;;;15.80;99.90;;;;;;5040525;28;20245;-78
2021/08/06 03:02:59;;;;;;;20.13;17.48;;;15.80;99.90;;;;;;5032976;28;20250;-82
2021/08/06 03:05:27;;;;;;;22.55;20.20;;;15.70;99.90;;;;;;5039663;28;20233;-80
2021/08/06 03:07:55;;;;;;;23.67;21.33;;;15.70;99.90;;;;;;5030630;28;20240;-81
2021/08/06 03:10:23;;;;;;;21.83;19.80;;;15.70;99.90;;;;;;5037269;28;20591;-79
2021/08/06 03:12:51;;;;;;;21.55;19.45;;;15.70;99.90;;;;;;5038032;28;20264;-80
2021/08/06 03:15:19;;;;;;;21.70;19.73;;;15.70;99.90;;;;;;5033420;28;20211;-82
2021/08/06 03:17:47;;;;;;;20.00;18.05;;;15.70;99.90;;;;;;5023460;28;20602;-84
2021/08/06 03:20:16;;;;;;;22.88;20.67;;;15.70;99.90;;;;;;5020394;28;20209;-82
2021/08/06 03:22:43;;;;;;;20.23;18.40;;;15.80;99.90;;;;;;5037914;28;20284;-82
2021/08/06 03:25:13;;;;;;;20.75;18.75;;;15.70;99.90;;;;;;5037920;28;20735;-81
2021/08/06 03:27:41;;;;;;;21.02;18.67;;;15.70;99.90;;;;;;5030617;28;20224;-83
2021/08/06 03:30:10;;;;;;;19.63;17.83;;;15.70;99.90;;;;;;5030991;28;20674;-83
2021/08/06 03:32:39;;;;;;;22.13;19.27;;;15.70;99.90;;;;;;5032908;28;20207;-83
2021/08/06 03:35:07;;;;;;;22.02;19.52;;;15.70;99.90;;;;;;5022547;28;20204;-83
2021/08/06 03:37:35;;;;;;;18.85;17.05;;;15.80;99.90;;;;;;5035846;28;20957;-83
2021/08/06 03:40:02;;;;;;;21.35;19.20;;;15.80;99.90;;;;;;5026985;28;20232;-84
2021/08/06 03:42:31;;;;;;;19.35;17.40;;;15.80;99.90;;;;;;5031624;28;20185;-84
2021/08/06 03:44:58;;;;;;;19.52;17.73;;;15.80;99.90;;;;;;5032027;28;20292;-83
2021/08/06 03:47:25;;;;;;;19.65;17.80;;;15.80;99.90;;;;;;5025687;28;20224;-83
2021/08/06 03:49:52;;;;;;;21.20;19.13;;;15.80;99.90;;;;;;5035625;28;20211;-82
2021/08/06 03:52:19;;;;;;;20.45;18.35;;;15.80;99.90;;;;;;5023959;28;20698;-82
2021/08/06 03:54:47;;;;;;;22.05;19.75;;;15.80;99.90;;;;;;5030850;28;20219;-80
2021/08/06 03:57:14;;;;;;;21.63;19.52;;;15.80;99.90;;;;;;5031012;28;20235;-79
2021/08/06 03:59:42;;;;;;;20.48;18.48;;;15.80;99.90;;;;;;5028473;28;20204;-83
2021/08/06 04:02:10;;;;;;;23.02;19.42;;;15.80;99.90;;;;;;5026832;28;20209;-84
2021/08/06 04:04:37;;;;;;;22.70;20.13;;;15.70;99.90;;;;;;5024628;28;20213;-79
2021/08/06 04:07:04;;;;;;;22.75;20.55;;;15.70;99.90;;;;;;5042060;28;20227;-83
2021/08/06 04:09:31;;;;;;;20.83;18.90;;;15.80;99.90;;;;;;5038879;28;20209;-83
2021/08/06 04:11:59;;;;;;;22.27;20.23;;;15.70;99.90;;;;;;5036652;28;20205;-79
2021/08/06 04:14:26;;;;;;;23.25;20.88;;;15.80;99.90;;;;;;5042667;28;20203;-82
2021/08/06 04:16:54;;;;;;;22.90;20.58;;;15.80;99.90;;;;;;5044657;28;20218;-80
2021/08/06 04:19:21;;;;;;;21.90;19.80;;;15.80;99.90;;;;;;5036284;28;20211;-79
2021/08/06 04:21:48;;;;;;;21.60;19.52;;;15.80;99.90;;;;;;5039885;28;20207;-81
2021/08/06 04:24:16;;;;;;;24.00;20.85;;;15.80;99.90;;;;;;5043684;28;20192;-81
2021/08/06 04:26:43;;;;;;;21.98;19.65;;;15.90;99.90;;;;;;5037451;28;20220;-82
2021/08/06 04:29:10;;;;;;;22.20;20.05;;;15.80;99.90;;;;;;5033051;28;20208;-82
2021/08/06 04:31:37;;;;;;;25.30;22.60;;;15.90;99.90;;;;;;5037358;28;20273;-85
2021/08/06 04:34:06;;;;;;;22.20;20.00;;;15.80;99.90;;;;;;5032648;28;20205;-84
2021/08/06 04:36:36;;;;;;;22.88;20.52;;;15.80;99.90;;;;;;5034785;28;20251;-84
2021/08/06 04:39:03;;;;;;;21.77;19.85;;;15.80;99.90;;;;;;5028075;28;20259;-84
2021/08/06 04:41:30;;;;;;;22.58;20.35;;;15.80;99.90;;;;;;5028009;28;20268;-83
2021/08/06 04:43:58;;;;;;;24.40;22.00;;;15.80;99.90;;;;;;5034611;28;20201;-81
2021/08/06 04:46:25;;;;;;;22.90;20.65;;;15.80;99.90;;;;;;5031420;28;20235;-83
2021/08/06 04:48:52;;;;;;;23.13;20.70;;;15.80;99.90;;;;;;5035119;28;20209;-84
2021/08/06 04:51:21;;;;;;;20.75;18.70;;;15.90;99.90;;;;;;5031620;28;20263;-82
2021/08/06 04:53:48;;;;;;;22.95;19.88;;;16.20;99.90;;;;;;5031650;28;20228;-83
2021/08/06 04:56:15;;;;;;;21.25;19.05;;;16.40;99.90;;;;;;5039699;28;20241;-82
2021/08/06 04:58:43;;;;;;;20.98;18.77;;;16.50;99.90;;;;;;5028320;28;20214;-84
2021/08/06 05:01:10;;;;;;;20.63;18.67;;;16.80;99.90;;;;;;5027862;28;20638;-84
2021/08/06 05:03:37;;;;;;;20.63;17.10;;;17.40;99.90;;;;;;5034339;28;20203;-82
2021/08/06 05:06:04;;;;;;;18.60;16.30;;;18.00;99.90;;;;;;5028219;28;20232;-83
2021/08/06 05:08:33;;;;;;;16.00;14.23;;;18.70;99.90;;;;;;5026098;28;20568;-83
2021/08/06 05:11:00;;;;;;;19.50;12.90;;;19.40;99.90;;;;;;5028698;28;20432;-80
2021/08/06 05:13:27;;;;;;;17.57;13.83;;;20.10;99.90;;;;;;5038249;28;20479;-79
2021/08/06 05:15:54;;;;;;;14.90;13.40;;;20.50;99.90;;;;;;5036717;28;20449;-81
2021/08/06 05:18:21;;;;;;;16.20;13.57;;;20.90;99.90;;;;;;5046405;28;20435;-79
2021/08/06 05:20:48;;;;;;;13.10;11.87;;;21.10;99.90;;;;;;5046116;28;20444;-80
2021/08/06 05:23:15;;;;;;;13.13;11.73;;;21.40;99.90;;;;;;5042889;28;20454;-81
2021/08/06 05:25:44;;;;;;;12.40;11.27;;;21.70;99.90;;;;;;5024200;28;20491;-82
2021/08/06 05:28:11;;;;;;;14.93;13.40;;;21.70;99.90;;;;;;5024236;28;20451;-81
2021/08/06 05:30:38;;;;;;;16.43;14.60;;;21.70;99.90;;;;;;5031470;28;20450;-81
2021/08/06 05:33:05;;;;;;;11.83;10.80;;;21.80;99.90;;;;;;5032596;28;20423;-78
2021/08/06 05:35:32;;;;;;;11.13;10.10;;;22.30;99.90;;;;;;5028063;28;20425;-79
2021/08/06 05:37:59;;;;;;;11.93;10.27;;;22.70;99.90;;;;;;5039700;28;20449;-79
2021/08/06 05:40:27;;;;;;;11.63;10.23;;;23.00;99.90;;;;;;5049908;28;20443;-79
2021/08/06 05:42:56;;;;;;;11.73;10.53;;;22.80;99.90;;;;;;5049117;28;20435;-80
2021/08/06 05:45:23;;;;;;;12.53;10.80;;;23.00;99.90;;;;;;5033290;28;20463;-79
2021/08/06 05:47:53;;;;;;;11.97;10.87;;;23.40;99.90;;;;;;5037963;28;20458;-78
2021/08/06 05:50:22;;;;;;;12.80;11.53;;;23.40;99.90;;;;;;5043550;28;20435;-79
2021/08/06 05:52:49;;;;;;;10.87;9.43;;;23.70;99.90;;;;;;5038580;28;20420;-79
2021/08/06 05:55:16;;;;;;;11.50;10.40;;;24.00;99.90;;;;;;5038267;28;20421;-79
2021/08/06 05:57:44;;;;;;;9.67;8.87;;;24.30;99.90;;;;;;5041556;28;20451;-82
2021/08/06 06:00:21;;;;;;;12.23;11.10;;;24.60;99.10;;;;;;5042384;28;20424;-80
2021/08/06 06:02:48;;;;;;;14.40;11.43;;;25.00;98.40;;;;;;5057368;28;20421;-78
2021/08/06 06:05:15;;;;;;;11.47;10.37;;;25.30;97.50;;;;;;5051386;28;20482;-82
2021/08/06 06:07:46;;;;;;;43.37;30.77;;;25.40;96.60;;;;;;5046611;28;20468;-80
2021/08/06 06:10:14;;;;;;;12.33;11.10;;;25.40;96.40;;;;;;5039749;28;20483;-79
2021/08/06 06:12:41;;;;;;;11.27;10.30;;;25.70;95.90;;;;;;5032881;28;20466;-82
2021/08/06 06:15:09;;;;;;;10.23;9.20;;;25.40;95.40;;;;;;5029742;28;20451;-83
2021/08/06 06:17:38;;;;;;;11.47;10.37;;;25.70;95.50;;;;;;5031742;28;20463;-79
2021/08/06 06:20:06;;;;;;;10.73;9.87;;;25.80;95.70;;;;;;5028788;28;20835;-83
2021/08/06 06:22:56;;;;;;;11.60;9.37;;;26.10;95.00;;;;;;5036510;28;20442;-82
2021/08/06 06:25:24;;;;;;;10.00;9.00;;;26.00;95.10;;;;;;5027433;28;20470;-83
2021/08/06 06:27:58;;;;;;;11.57;10.23;;;26.40;94.60;;;;;;5035401;28;20482;-85
2021/08/06 06:30:27;;;;;;;9.07;8.27;;;26.50;94.00;;;;;;5033871;28;20447;-81
2021/08/06 06:32:57;;;;;;;9.63;8.83;;;26.80;93.60;;;;;;5034228;28;20448;-83
2021/08/06 06:35:25;;;;;;;9.73;8.70;;;26.50;93.40;;;;;;5032476;28;20458;-83
2021/08/06 06:37:53;;;;;;;9.33;8.53;;;26.60;94.00;;;;;;5034026;28;20463;-84
2021/08/06 06:40:21;;;;;;;7.77;7.07;;;26.90;93.50;;;;;;5032907;28;20443;-84
2021/08/06 06:42:49;;;;;;;7.90;7.20;;;26.90;93.30;;;;;;5039386;28;20504;-84
2021/08/06 06:45:21;;;;;;;8.87;7.90;;;27.00;93.20;;;;;;5038898;28;20442;-81
2021/08/06 06:47:50;;;;;;;8.37;7.57;;;27.30;92.10;;;;;;5041874;28;20490;-84
2021/08/06 06:50:20;;;;;;;8.73;7.93;;;27.40;92.20;;;;;;5030974;28;21175;-83
2021/08/06 06:52:48;;;;;;;8.30;7.50;;;27.10;92.10;;;;;;5032753;28;20451;-82
2021/08/06 06:55:16;;;;;;;8.30;7.60;;;26.60;92.90;;;;;;5026364;28;20470;-81
2021/08/06 06:58:26;;;;;;;9.30;8.40;;;26.00;93.90;;;;;;5026779;28;20486;-83
2021/08/06 07:04:20;;;;;;;10.10;9.20;;;24.00;98.30;;;;;;5007820;28;20424;-80
2021/08/06 07:07:29;;;;;;;10.67;9.67;;;23.30;99.90;;;;;;5038090;28;21102;-80
2021/08/06 07:10:08;;;;;;;9.73;8.90;;;22.70;99.90;;;;;;5038207;28;20472;-80
2021/08/06 07:12:46;;;;;;;10.27;9.33;;;22.50;99.90;;;;;;5038730;28;20432;-82
2021/08/06 07:15:15;;;;;;;10.60;9.13;;;22.40;99.90;;;;;;5038924;28;20447;-83
2021/08/06 07:17:43;;;;;;;10.23;9.10;;;22.30;99.90;;;;;;5055294;22;20509;-80
2021/08/06 07:20:26;;;;;;;10.20;9.30;;;22.10;99.90;;;;;;5041151;28;20462;-81
2021/08/06 07:23:02;;;;;;;10.97;9.87;;;22.10;99.90;;;;;;5033231;28;20979;-83
2021/08/06 07:25:56;;;;;;;10.13;9.13;;;22.40;99.90;;;;;;5031762;28;20419;-82
2021/08/06 07:28:43;;;;;;;9.00;8.20;;;23.20;99.90;;;;;;5003754;28;20465;-81
2021/08/06 07:31:11;;;;;;;8.90;7.30;;;24.30;99.90;;;;;;5011221;28;20457;-83
2021/08/06 07:33:38;;;;;;;7.60;6.90;;;25.30;98.70;;;;;;5009472;28;20477;-82
2021/08/06 07:36:11;;;;;;;8.53;7.83;;;26.40;96.20;;;;;;5009194;28;20461;-83
2021/08/06 07:38:39;;;;;;;7.37;6.70;;;26.50;94.50;;;;;;5021871;28;20455;-83
2021/08/06 07:41:06;;;;;;;8.03;7.33;;;26.40;95.10;;;;;;5017074;28;20449;-80
2021/08/06 07:43:34;;;;;;;8.17;7.47;;;26.10;95.40;;;;;;5012333;28;20520;-79
2021/08/06 07:49:25;;;;;;;8.67;7.90;;;25.10;97.20;;;;;;5004355;28;20560;-81
2021/08/06 07:52:34;;;;;;;7.70;7.00;;;24.60;99.00;;;;;;5018628;28;20462;-81
2021/08/06 07:55:19;;;;;;;8.83;7.97;;;24.40;99.30;;;;;;5012224;28;20457;-84
2021/08/06 07:57:51;;;;;;;7.23;6.63;;;23.80;99.90;;;;;;5014517;28;20490;-81
2021/08/06 08:00:18;;;;;;;7.60;6.90;;;24.00;99.90;;;;;;5031367;28;20472;-81
2021/08/06 08:09:18;;;;;;;9.47;6.93;;;25.30;98.80;;;;;;5019186;28;20559;-83
2021/08/06 08:11:54;;;;;;;9.43;8.50;;;25.60;97.60;;;;;;5013553;28;20438;-85
2021/08/06 08:20:51;;;;;;;8.50;7.80;;;24.70;99.10;;;;;;5021840;28;20459;-83
2021/08/06 08:23:21;;;;;;;6.77;6.20;;;24.90;98.50;;;;;;5016088;28;20453;-82
2021/08/06 08:25:53;;;;;;;14.17;6.90;;;25.20;98.50;;;;;;5014087;28;20484;-83
2021/08/06 08:32:32;;;;;;;6.63;6.03;;;26.30;96.40;;;;;;4933970;28;20452;-86
2021/08/06 08:35:20;;;;;;;8.10;5.87;;;27.40;94.60;;;;;;4989074;28;20903;-84
2021/08/06 08:41:19;;;;;;;6.93;6.33;;;30.20;90.30;;;;;;4986849;28;20585;-83
2021/08/06 08:47:35;;;;;;;7.10;5.80;;;31.50;84.90;;;;;;4967973;28;20562;-83
2021/08/06 08:50:07;;;;;;;7.83;6.33;;;31.60;83.80;;;;;;5013006;28;20511;-85
2021/08/06 08:52:34;;;;;;;7.90;6.10;;;31.30;82.90;;;;;;5009045;28;20478;-82
2021/08/06 08:55:02;;;;;;;5.80;5.30;;;31.20;84.00;;;;;;5021168;28;20451;-84
2021/08/06 08:57:32;;;;;;;9.03;6.23;;;31.30;83.10;;;;;;5005084;28;20458;-85
2021/08/06 09:03:27;;;;;;;8.20;5.40;;;32.50;80.40;;;;;;5011781;28;20460;-85
2021/08/06 09:05:58;;;;;;;9.20;6.30;;;32.80;79.60;;;;;;5007845;28;20460;-81
2021/08/06 09:08:26;;;;;;;6.20;5.60;;;31.90;80.20;;;;;;5014446;28;20499;-84
2021/08/06 09:10:54;;;;;;;7.50;5.87;;;31.60;81.50;;;;;;5010768;28;20444;-80
2021/08/06 09:16:28;;;;;;;8.23;5.90;;;29.90;86.00;;;;;;4957132;22;20474;-66
2021/08/06 09:18:55;;;;;;;5.77;5.17;;;29.70;86.60;;;;;;5047798;28;20493;-68
2021/08/06 09:21:27;;;;;;;7.70;5.53;;;29.20;88.20;;;;;;5052936;28;20443;-69
2021/08/06 09:23:55;;;;;;;5.70;5.13;;;29.10;89.70;;;;;;5057418;28;20446;-68
2021/08/06 09:26:32;;;;;;;7.63;5.80;;;29.20;89.20;;;;;;5050209;28;20880;-67
2021/08/06 09:29:02;;;;;;;6.33;5.63;;;28.90;88.80;;;;;;5061976;28;20475;-68
2021/08/06 09:31:30;;;;;;;7.27;5.10;;;28.70;89.30;;;;;;5051748;28;20495;-71
2021/08/06 09:34:12;;;;;;;8.20;6.53;;;29.10;88.80;;;;;;5052843;28;21030;-69
2021/08/06 09:36:56;;;;;;;5.43;4.93;;;29.30;88.80;;;;;;5048586;28;20456;-70
2021/08/06 09:39:24;;;;;;;7.67;5.33;;;29.10;88.40;;;;;;5045036;28;20470;-70
2021/08/06 09:41:52;;;;;;;5.50;5.00;;;28.10;90.40;;;;;;5051767;28;20443;-70
2021/08/06 09:44:22;;;;;;;5.93;5.43;;;27.20;91.20;;;;;;5050482;28;20904;-70
2021/08/06 09:46:50;;;;;;;6.83;5.00;;;27.00;92.10;;;;;;5050278;28;20496;-67
2021/08/06 09:49:18;;;;;;;4.50;4.10;;;26.90;92.70;;;;;;5050569;28;20485;-70
2021/08/06 09:51:50;;;;;;;3.80;3.50;;;26.20;93.00;;;;;;5051745;28;20767;-70
2021/08/06 09:54:22;;;;;;;6.73;3.93;;;26.20;94.20;;;;;;5049002;28;20457;-69
2021/08/06 09:57:01;;;;;;;6.53;4.40;;;26.10;94.50;;;;;;5051720;28;20446;-69
2021/08/06 09:59:30;;;;;;;6.60;3.60;;;25.90;94.80;;;;;;5048191;28;20446;-71
2021/08/06 10:02:20;;;;;;;5.30;4.53;;;25.60;95.90;;;;;;5052731;28;20529;-71
2021/08/06 10:04:58;;;;;;;8.03;5.00;;;25.60;96.70;;;;;;5049367;28;20446;-69
2021/08/06 10:07:29;;;;;;;4.33;3.73;;;25.90;96.60;;;;;;5048971;28;20489;-70
2021/08/06 10:09:56;;;;;;;4.30;3.70;;;26.10;96.20;;;;;;5050709;28;20453;-70
2021/08/06 10:12:23;;;;;;;4.67;4.23;;;25.80;96.00;;;;;;5051225;28;20956;-70
2021/08/06 10:14:51;;;;;;;5.37;4.20;;;25.40;96.40;;;;;;5054217;28;20449;-71
2021/08/06 10:17:18;;;;;;;5.57;4.17;;;25.30;96.90;;;;;;5056368;28;20466;-70
2021/08/06 10:19:45;;;;;;;5.30;3.73;;;25.00;97.40;;;;;;5058048;28;20438;-70
2021/08/06 10:22:12;;;;;;;5.53;3.70;;;25.00;98.30;;;;;;5050113;28;20453;-70
2021/08/06 10:24:45;;;;;;;4.90;3.67;;;25.30;97.90;;;;;;5051134;28;20469;-70
2021/08/06 10:27:13;;;;;;;4.43;3.83;;;26.00;96.50;;;;;;5051197;28;20836;-70
2021/08/06 10:30:00;;;;;;;4.83;4.13;;;26.50;96.40;;;;;;5050325;28;20442;-70
2021/08/06 10:32:28;;;;;;;3.93;3.50;;;26.60;95.30;;;;;;5050968;28;20813;-70
2021/08/06 10:35:17;;;;;;;4.90;3.97;;;26.40;95.70;;;;;;5051051;28;20442;-71
2021/08/06 10:38:02;;;;;;;4.70;3.43;;;26.80;94.40;;;;;;5050772;28;20462;-71
2021/08/06 10:41:14;;;;;;;4.80;3.40;;;27.10;93.70;;;;;;5042802;28;20454;-70
2021/08/06 10:43:51;;;;;;;4.23;3.83;;;27.10;93.30;;;;;;5053283;28;20473;-70
2021/08/06 10:46:19;;;;;;;4.10;3.70;;;27.10;93.60;;;;;;5053085;28;20449;-69
2021/08/06 10:48:49;;;;;;;4.80;3.20;;;27.40;93.30;;;;;;5054856;28;20476;-71
2021/08/06 10:51:31;;;;;;;3.17;2.87;;;27.60;92.50;;;;;;5054410;28;20450;-69
2021/08/06 10:54:35;;;;;;;5.57;4.43;;;27.70;92.40;;;;;;5054704;28;20433;-70
2021/08/06 10:57:28;;;;;;;5.40;3.10;;;27.40;92.30;;;;;;5054264;28;20437;-69
2021/08/06 10:59:57;;;;;;;3.60;2.90;;;26.90;92.10;;;;;;5054622;28;20452;-70
2021/08/06 11:02:45;;;;;;;6.83;3.40;;;26.20;93.00;;;;;;5054917;28;20438;-70
2021/08/06 11:05:39;;;;;;;3.90;3.50;;;26.10;93.60;;;;;;5054722;28;20817;-69
2021/08/06 11:08:48;;;;;;;4.67;3.30;;;26.20;94.30;;;;;;5050720;28;20490;-70
2021/08/06 11:11:46;;;;;;;4.40;3.13;;;26.20;94.30;;;;;;4973086;28;21138;-70
2021/08/06 11:14:17;;;;;;;6.63;2.73;;;25.70;94.90;;;;;;4971925;28;20983;-71
2021/08/06 11:17:05;;;;;;;4.00;2.30;;;25.20;95.20;;;;;;5029872;28;20457;-70
2021/08/06 11:19:35;;;;;;;2.43;2.23;;;25.10;95.40;;;;;;5053368;28;21003;-70
2021/08/06 11:22:06;;;;;;;3.10;2.80;;;24.80;95.40;;;;;;5053785;28;20453;-70
2021/08/06 11:24:42;;;;;;;3.73;3.00;;;24.50;96.20;;;;;;5048102;28;20446;-71
2021/08/06 11:27:10;;;;;;;3.33;3.03;;;24.30;97.20;;;;;;5044676;28;20486;-70
2021/08/06 11:29:41;;;;;;;4.23;3.03;;;24.00;98.00;;;;;;5053756;28;20447;-70
2021/08/06 11:32:10;;;;;;;5.07;3.53;;;23.80;99.10;;;;;;5054066;28;20475;-70
2021/08/06 11:34:51;;;;;;;3.63;2.80;;;23.60;99.80;;;;;;5053710;28;20462;-69
2021/08/06 11:37:19;;;;;;;4.73;1.73;;;23.00;99.90;;;;;;5054964;28;20440;-71
2021/08/06 11:40:09;;;;;;;2.77;1.80;;;22.60;99.90;;;;;;5054515;28;20449;-72
2021/08/06 11:42:37;;;;;;;2.50;1.87;;;21.50;99.90;;;;;;5054983;28;20506;-70
2021/08/06 11:45:10;;;;;;;1.70;1.60;;;20.70;99.90;;;;;;5054712;28;20441;-72
2021/08/06 11:47:40;;;;;;;2.23;1.70;;;20.40;99.90;;;;;;5052167;28;20497;-73
2021/08/06 11:50:10;;;;;;;2.10;1.90;;;20.00;99.90;;;;;;5048397;28;20456;-72
2021/08/06 11:52:39;;;;;;;2.17;1.60;;;19.70;99.90;;;;;;5046255;28;20459;-73
2021/08/06 11:55:07;;;;;;;2.57;1.70;;;19.60;99.90;;;;;;5049605;28;20443;-73
2021/08/06 11:58:01;;;;;;;3.70;1.83;;;19.40;99.90;;;;;;5043440;28;20459;-76
2021/08/06 12:00:32;;;;;;;4.37;2.37;;;19.30;99.90;;;;;;5015285;28;20453;-72
2021/08/06 12:03:07;;;;;;;2.00;1.80;;;19.30;99.90;;;;;;5048967;28;20449;-74
2021/08/06 12:05:36;;;;;;;5.10;2.90;;;19.20;99.90;;;;;;5053421;28;20443;-72
2021/08/06 12:08:26;;;;;;;3.10;1.93;;;19.00;99.90;;;;;;5052694;28;20572;-71
2021/08/06 12:10:55;;;;;;;7.93;2.03;;;19.10;99.90;;;;;;5049591;28;20450;-72
2021/08/06 12:13:24;;;;;;;2.50;2.30;;;19.10;99.90;;;;;;5053836;28;20544;-71
2021/08/06 12:16:06;;;;;;;3.33;1.90;;;19.10;99.90;;;;;;5056421;28;20528;-71
2021/08/06 12:18:34;;;;;;;2.90;1.77;;;19.20;99.90;;;;;;5048581;28;21031;-73
2021/08/06 12:21:04;;;;;;;4.40;1.33;;;19.20;99.90;;;;;;5059644;28;20444;-73
2021/08/06 12:23:32;;;;;;;4.83;2.40;;;19.30;99.90;;;;;;5058999;28;20804;-75
2021/08/06 12:26:11;;;;;;;3.67;2.03;;;19.30;99.90;;;;;;5055687;28;20460;-75
2021/08/06 12:28:41;;;;;;;6.40;3.80;;;19.40;99.90;;;;;;5057592;28;20481;-74
2021/08/06 12:31:18;;;;;;;3.90;2.27;;;19.30;99.90;;;;;;5059374;28;20460;-72
2021/08/06 12:33:48;;;;;;;2.80;1.77;;;19.30;99.90;;;;;;5047814;28;20457;-71
2021/08/06 12:36:18;;;;;;;2.00;1.80;;;19.30;99.90;;;;;;5056030;28;20449;-71
2021/08/06 12:38:47;;;;;;;2.60;1.83;;;19.30;99.90;;;;;;5053458;28;20476;-74
2021/08/06 12:41:31;;;;;;;2.67;2.10;;;19.40;99.90;;;;;;5052668;28;20461;-74
2021/08/06 12:44:20;;;;;;;3.23;2.13;;;19.40;99.90;;;;;;5053000;28;20458;-73
2021/08/06 12:47:01;;;;;;;3.03;2.73;;;19.40;99.90;;;;;;5051887;28;20450;-72
2021/08/06 12:49:30;;;;;;;2.40;1.87;;;19.30;99.90;;;;;;5050303;28;20443;-73
2021/08/06 12:51:59;;;;;;;3.50;2.40;;;19.40;99.90;;;;;;5051402;28;20438;-73
2021/08/06 12:54:43;;;;;;;3.80;3.00;;;19.30;99.90;;;;;;5053037;28;20446;-73
2021/08/06 12:57:11;;;;;;;3.70;3.07;;;19.50;99.90;;;;;;5043378;28;20458;-72
2021/08/06 12:59:43;;;;;;;3.40;2.10;;;19.50;99.90;;;;;;5053176;28;20442;-71
2021/08/06 13:02:17;;;;;;;3.40;3.10;;;19.80;99.90;;;;;;5050023;28;20447;-72
2021/08/06 13:04:45;;;;;;;1.97;1.80;;;20.20;99.90;;;;;;5053365;28;20441;-72
2021/08/06 13:07:30;;;;;;;3.27;2.97;;;20.70;99.90;;;;;;5051465;28;20497;-70
2021/08/06 13:09:57;;;;;;;2.37;2.07;;;21.10;99.90;;;;;;5052796;28;20452;-70
2021/08/06 13:12:25;;;;;;;5.30;4.40;;;21.40;99.90;;;;;;5052419;28;20938;-71
2021/08/06 13:14:52;;;;;;;4.33;2.03;;;21.50;99.90;;;;;;5055298;28;20454;-71
2021/08/06 13:17:21;;;;;;;3.73;3.20;;;21.60;99.90;;;;;;5051275;28;20457;-72
2021/08/06 13:19:49;;;;;;;3.83;2.80;;;21.90;99.90;;;;;;5052621;28;20504;-70
2021/08/06 13:22:20;;;;;;;3.43;2.60;;;22.10;99.90;;;;;;5050894;28;20453;-69
2021/08/06 13:24:49;;;;;;;2.50;2.30;;;22.60;99.90;;;;;;5052117;28;20892;-71
2021/08/06 13:27:16;;;;;;;3.30;2.63;;;22.70;99.90;;;;;;5055909;28;20531;-69
2021/08/06 13:29:43;;;;;;;3.00;2.23;;;22.80;99.90;;;;;;5050936;28;20457;-70
2021/08/06 13:32:11;;;;;;;2.77;2.57;;;23.00;99.90;;;;;;5049360;28;20455;-71
2021/08/06 13:34:39;;;;;;;8.73;2.47;;;23.30;99.90;;;;;;5046704;28;20520;-71